createdAt,value
2022-11-30T00:01:52.530Z,11.33
2022-11-30T00:04:20.587Z,9.07
2022-11-30T00:06:48.541Z,10.07
2022-11-30T00:09:16.507Z,8.23
2022-11-30T00:11:44.479Z,7.20
2022-11-30T00:14:12.481Z,13.50
2022-11-30T00:16:41.927Z,7.70
2022-11-30T00:19:09.956Z,8.50
2022-11-30T00:21:37.891Z,4.83
2022-11-30T00:24:06.956Z,9.30
2022-11-30T00:26:34.896Z,6.57
2022-11-30T00:29:02.905Z,9.40
2022-11-30T00:31:30.897Z,9.67
2022-11-30T00:34:00.412Z,8.47
2022-11-30T00:36:28.374Z,6.50
2022-11-30T00:38:56.477Z,6.67
2022-11-30T00:41:24.508Z,7.70
2022-11-30T00:43:52.519Z,6.83
2022-11-30T00:46:20.584Z,6.87
2022-11-30T00:48:48.611Z,7.53
2022-11-30T00:51:18.642Z,6.20
2022-11-30T00:53:47.753Z,8.10
2022-11-30T00:56:15.823Z,12.03
2022-11-30T00:58:43.753Z,6.30
2022-11-30T01:01:11.777Z,6.67
2022-11-30T01:03:39.755Z,4.97
2022-11-30T01:06:09.698Z,5.70
2022-11-30T01:08:39.046Z,6.97
2022-11-30T01:11:08.325Z,5.20
2022-11-30T01:13:36.328Z,7.67
2022-11-30T01:16:09.919Z,4.90
2022-11-30T01:18:38.176Z,5.70
2022-11-30T01:21:07.758Z,4.83
2022-11-30T01:23:35.819Z,4.50
2022-11-30T01:26:05.296Z,4.20
2022-11-30T01:28:33.360Z,5.13
2022-11-30T01:31:02.040Z,4.83
2022-11-30T01:33:29.976Z,7.60
2022-11-30T01:36:02.180Z,6.30
2022-11-30T01:38:33.161Z,6.90
2022-11-30T01:41:01.131Z,4.00
2022-11-30T01:43:40.415Z,6.03
2022-11-30T01:46:13.612Z,6.03
2022-11-30T01:48:41.626Z,7.13
2022-11-30T01:51:09.739Z,6.50
2022-11-30T01:53:37.678Z,5.07
2022-11-30T01:56:06.008Z,5.37
2022-11-30T01:58:34.971Z,4.13
2022-11-30T02:01:05.197Z,3.63
2022-11-30T02:03:35.839Z,5.73
2022-11-30T02:06:03.846Z,7.40
2022-11-30T02:08:32.009Z,3.10
2022-11-30T02:11:01.318Z,4.27
2022-11-30T02:13:38.938Z,5.50
2022-11-30T02:16:12.941Z,7.13
2022-11-30T02:18:44.817Z,6.70
2022-11-30T02:21:14.191Z,7.23
2022-11-30T02:24:08.312Z,5.17
2022-11-30T02:26:53.027Z,4.17
2022-11-30T02:29:22.766Z,6.33
2022-11-30T02:31:52.286Z,5.50
2022-11-30T02:34:21.328Z,3.07
2022-11-30T02:36:49.297Z,4.87
2022-11-30T02:39:18.082Z,5.10
2022-11-30T02:41:46.140Z,6.43
2022-11-30T02:44:14.108Z,7.03
2022-11-30T02:47:17.757Z,4.17
2022-11-30T02:49:50.625Z,11.10
2022-11-30T02:52:19.946Z,5.03
2022-11-30T02:54:48.224Z,4.63
2022-11-30T02:57:16.462Z,4.53
2022-11-30T02:59:44.394Z,7.03
2022-11-30T03:02:12.348Z,4.57
2022-11-30T03:04:40.326Z,7.20
2022-11-30T03:07:09.667Z,2.87
2022-11-30T03:09:37.608Z,5.57
2022-11-30T03:12:05.970Z,3.70
2022-11-30T03:14:33.983Z,6.33
2022-11-30T03:17:01.972Z,10.37
2022-11-30T03:19:30.051Z,5.90
2022-11-30T03:21:58.014Z,17.90
2022-11-30T03:24:27.371Z,6.17
2022-11-30T03:26:55.373Z,8.17
2022-11-30T03:29:23.299Z,6.37
2022-11-30T03:31:51.303Z,4.43
2022-11-30T03:34:19.199Z,20.20
2022-11-30T03:36:47.161Z,5.77
2022-11-30T03:39:15.131Z,6.47
2022-11-30T03:41:44.479Z,8.20
2022-11-30T03:44:12.448Z,9.20
2022-11-30T03:46:40.541Z,11.30
2022-11-30T03:49:08.567Z,11.40
2022-11-30T03:51:36.606Z,8.03
2022-11-30T03:54:04.732Z,10.00
2022-11-30T03:56:32.694Z,7.70
2022-11-30T03:59:02.061Z,9.27
2022-11-30T04:01:30.016Z,9.40
2022-11-30T04:03:57.998Z,6.53
2022-11-30T04:06:25.990Z,9.90
2022-11-30T04:08:53.952Z,9.20
2022-11-30T04:11:21.901Z,18.07
2022-11-30T04:13:49.830Z,9.33
2022-11-30T04:16:19.191Z,10.53
2022-11-30T04:18:47.261Z,10.77
2022-11-30T04:21:15.271Z,10.80
2022-11-30T04:23:43.249Z,4.53
2022-11-30T04:26:13.412Z,10.70
2022-11-30T04:28:41.311Z,9.93
2022-11-30T04:31:09.552Z,18.23
2022-11-30T04:33:38.952Z,9.87
2022-11-30T04:36:07.780Z,10.30
2022-11-30T04:38:37.170Z,10.67
2022-11-30T04:41:08.820Z,11.53
2022-11-30T04:43:37.146Z,16.17
2022-11-30T04:46:05.116Z,10.27
2022-11-30T04:48:33.094Z,11.10
2022-11-30T04:51:03.714Z,18.03
2022-11-30T04:53:31.683Z,10.40
2022-11-30T04:55:59.677Z,22.57
2022-11-30T04:58:27.699Z,16.63
2022-11-30T05:00:55.978Z,14.00
2022-11-30T05:03:23.941Z,16.13
2022-11-30T05:05:51.907Z,12.67
2022-11-30T05:08:21.314Z,13.50
2022-11-30T05:10:53.411Z,13.27
2022-11-30T05:13:21.541Z,10.73
2022-11-30T05:15:49.773Z,15.40
2022-11-30T05:18:17.800Z,12.73
2022-11-30T05:20:49.099Z,19.27
2022-11-30T05:23:17.347Z,20.67
2022-11-30T05:25:46.712Z,15.10
2022-11-30T05:28:14.788Z,12.77
2022-11-30T05:30:43.540Z,19.90
2022-11-30T05:33:11.628Z,15.20
2022-11-30T05:35:39.645Z,13.00
2022-11-30T05:38:07.637Z,10.30
2022-11-30T05:40:35.637Z,11.93
2022-11-30T05:43:05.392Z,24.57
2022-11-30T05:45:33.323Z,10.50
2022-11-30T05:48:01.297Z,13.27
2022-11-30T05:50:29.306Z,16.27
2022-11-30T05:52:57.517Z,16.70
2022-11-30T05:55:25.574Z,18.50
2022-11-30T05:57:53.489Z,33.43
2022-11-30T06:00:23.606Z,15.40
2022-11-30T06:02:56.778Z,15.97
2022-11-30T06:05:24.777Z,17.30
2022-11-30T06:07:52.770Z,15.40
2022-11-30T06:10:20.793Z,17.70
2022-11-30T06:12:49.726Z,12.20
2022-11-30T06:15:17.784Z,22.90
2022-11-30T06:17:47.074Z,21.17
2022-11-30T06:20:16.215Z,25.63
2022-11-30T06:22:46.532Z,15.50
2022-11-30T06:25:15.040Z,17.80
2022-11-30T06:27:43.845Z,12.53
2022-11-30T06:30:13.141Z,18.83
2022-11-30T06:32:41.250Z,14.17
2022-11-30T06:35:10.893Z,15.87
2022-11-30T06:37:38.900Z,14.77
2022-11-30T06:40:08.473Z,11.17
2022-11-30T06:42:37.095Z,13.33
2022-11-30T06:45:05.962Z,13.73
2022-11-30T06:47:33.979Z,11.87
2022-11-30T06:50:01.938Z,12.90
2022-11-30T06:52:32.595Z,10.50
2022-11-30T06:55:00.586Z,13.30
2022-11-30T06:57:29.204Z,13.47
2022-11-30T06:59:57.205Z,15.23
2022-11-30T07:02:25.129Z,13.97
2022-11-30T07:04:53.074Z,15.10
2022-11-30T07:07:21.251Z,13.90
2022-11-30T07:09:50.808Z,14.90
2022-11-30T07:12:18.853Z,17.90
2022-11-30T07:14:47.162Z,12.67
2022-11-30T07:17:15.382Z,23.77
2022-11-30T07:19:43.333Z,33.03
2022-11-30T07:22:11.322Z,15.07
2022-11-30T07:24:56.531Z,16.53
2022-11-30T07:27:25.923Z,12.87
2022-11-30T07:29:53.897Z,12.17
2022-11-30T07:32:21.830Z,14.30
2022-11-30T07:34:50.076Z,26.00
2022-11-30T07:37:18.284Z,23.53
2022-11-30T07:39:46.256Z,20.00
2022-11-30T07:42:14.210Z,14.93
2022-11-30T07:44:43.586Z,16.43
2022-11-30T07:47:11.588Z,10.73
2022-11-30T07:49:40.346Z,11.70
2022-11-30T07:52:08.443Z,14.70
2022-11-30T07:54:36.444Z,19.97
2022-11-30T07:57:04.435Z,19.60
2022-11-30T07:59:32.426Z,22.10
2022-11-30T08:02:01.997Z,23.33
2022-11-30T08:04:30.165Z,29.37
2022-11-30T08:06:59.076Z,20.40
2022-11-30T08:09:27.103Z,14.07
2022-11-30T08:11:55.063Z,16.00
2022-11-30T08:14:22.990Z,12.93
2022-11-30T08:16:51.797Z,11.77
2022-11-30T08:19:21.191Z,13.00
2022-11-30T08:21:49.190Z,20.33
2022-11-30T08:24:17.307Z,11.70
2022-11-30T08:26:45.362Z,11.40
2022-11-30T08:29:13.305Z,13.50
2022-11-30T08:31:41.449Z,15.43
2022-11-30T08:34:11.142Z,19.60
2022-11-30T08:36:40.752Z,14.07
2022-11-30T08:39:09.501Z,13.13
2022-11-30T08:41:39.181Z,16.80
2022-11-30T08:44:07.387Z,18.33
2022-11-30T08:46:50.828Z,25.90
2022-11-30T08:52:18.598Z,35.13
2022-11-30T08:54:47.774Z,34.37
2022-11-30T08:57:16.239Z,26.93
2022-11-30T08:59:44.316Z,38.20
2022-11-30T09:02:12.642Z,53.47
2022-11-30T09:04:40.655Z,63.20
2022-11-30T09:07:09.965Z,69.07
2022-11-30T09:09:37.903Z,67.80
2022-11-30T09:12:06.183Z,76.70
2022-11-30T09:14:34.147Z,48.60
2022-11-30T09:17:02.097Z,56.90
2022-11-30T09:19:30.145Z,49.90
2022-11-30T09:21:58.120Z,54.10
2022-11-30T09:24:27.461Z,39.60
2022-11-30T09:26:56.370Z,54.33
2022-11-30T09:29:24.467Z,32.53
2022-11-30T09:31:52.752Z,36.90
2022-11-30T09:34:20.836Z,30.37
2022-11-30T09:36:48.800Z,28.53
2022-11-30T09:39:16.829Z,43.60
2022-11-30T09:42:18.408Z,37.73
2022-11-30T09:44:51.198Z,28.83
2022-11-30T09:47:27.628Z,33.33
2022-11-30T09:49:57.234Z,35.40
2022-11-30T09:52:28.171Z,41.50
2022-11-30T09:54:56.165Z,54.70
2022-11-30T09:57:27.585Z,71.40
2022-11-30T09:59:56.708Z,45.87
2022-11-30T10:02:27.686Z,26.23
2022-11-30T10:04:55.804Z,32.10
2022-11-30T10:07:34.247Z,28.00
2022-11-30T10:12:57.957Z,21.63
2022-11-30T10:15:29.718Z,25.00
2022-11-30T10:17:59.008Z,22.50
2022-11-30T10:20:33.253Z,25.33
2022-11-30T10:23:08.359Z,16.70
2022-11-30T10:25:40.968Z,16.37
2022-11-30T10:28:45.127Z,19.63
2022-11-30T10:31:04.530Z,11.00
2022-11-30T10:33:38.510Z,34.57
2022-11-30T10:36:09.822Z,17.00
2022-11-30T10:38:39.835Z,25.67
2022-11-30T10:41:11.343Z,10.70
2022-11-30T10:43:43.651Z,11.60
2022-11-30T10:46:17.144Z,8.80
2022-11-30T10:48:47.319Z,16.50
2022-11-30T10:51:15.347Z,15.50
2022-11-30T10:53:43.404Z,11.90
2022-11-30T10:56:12.035Z,8.07
2022-11-30T10:58:42.482Z,8.03
2022-11-30T11:01:11.250Z,14.47
2022-11-30T11:03:39.307Z,11.50
2022-11-30T11:06:15.495Z,7.80
2022-11-30T11:08:45.583Z,12.33
2022-11-30T11:11:30.955Z,9.47
2022-11-30T11:14:17.583Z,13.00
2022-11-30T11:16:58.548Z,10.30
2022-11-30T11:19:37.218Z,11.90
2022-11-30T11:22:06.795Z,11.13
2022-11-30T11:24:34.826Z,14.03
2022-11-30T11:27:02.856Z,14.83
2022-11-30T11:29:34.551Z,9.67
2022-11-30T11:32:23.054Z,5.57
2022-11-30T11:34:51.616Z,6.10
2022-11-30T11:37:22.087Z,5.73
2022-11-30T11:40:05.642Z,5.73
2022-11-30T11:42:36.834Z,8.60
2022-11-30T11:45:07.052Z,10.70
2022-11-30T11:47:39.638Z,12.47
2022-11-30T11:50:31.787Z,14.87
2022-11-30T11:53:15.419Z,10.10
2022-11-30T11:55:43.670Z,10.87
2022-11-30T11:58:15.756Z,7.70
2022-11-30T12:00:45.382Z,9.50
2022-11-30T12:03:18.723Z,5.47
2022-11-30T12:05:49.575Z,5.00
2022-11-30T12:08:20.344Z,6.17
2022-11-30T12:10:52.134Z,10.50
2022-11-30T12:13:22.149Z,28.07
2022-11-30T12:16:01.612Z,32.37
2022-11-30T12:18:32.140Z,23.33
2022-11-30T12:21:01.627Z,16.23
2022-11-30T12:23:40.153Z,18.93
2022-11-30T12:26:10.819Z,23.23
2022-11-30T12:28:41.481Z,15.50
2022-11-30T12:31:13.241Z,12.43
2022-11-30T12:33:55.938Z,18.90
2022-11-30T12:36:27.191Z,31.30
2022-11-30T12:38:57.157Z,34.70
2022-11-30T12:41:33.026Z,27.43
2022-11-30T12:44:10.469Z,25.63
2022-11-30T12:46:42.327Z,10.37
2022-11-30T12:49:18.160Z,16.87
2022-11-30T12:51:48.437Z,9.30
2022-11-30T12:54:18.736Z,15.20
2022-11-30T12:56:48.726Z,9.80
2022-11-30T12:59:24.119Z,11.10
2022-11-30T13:02:14.711Z,10.77
2022-11-30T13:04:44.913Z,11.17
2022-11-30T13:07:17.061Z,6.03
2022-11-30T13:09:47.579Z,4.40
2022-11-30T13:12:17.765Z,10.53
2022-11-30T13:14:45.992Z,16.83
2022-11-30T13:17:18.400Z,18.17
2022-11-30T13:19:51.921Z,5.60
2022-11-30T13:22:24.864Z,12.00
2022-11-30T13:24:58.805Z,7.43
2022-11-30T13:27:29.965Z,6.93
2022-11-30T13:30:06.515Z,7.47
2022-11-30T13:35:43.735Z,11.17
2022-11-30T13:41:06.122Z,8.20
2022-11-30T13:43:36.227Z,7.53
2022-11-30T13:46:08.501Z,11.47
2022-11-30T13:48:40.559Z,8.20
2022-11-30T13:51:08.566Z,8.73
2022-11-30T13:53:37.617Z,7.00
2022-11-30T13:56:07.949Z,10.50
2022-11-30T13:58:36.014Z,12.73
2022-11-30T14:04:33.215Z,7.07
2022-11-30T14:07:01.264Z,8.50
2022-11-30T14:10:08.577Z,4.87
2022-11-30T14:12:58.843Z,9.73
2022-11-30T14:15:45.763Z,5.97
2022-11-30T14:18:20.646Z,6.67
2022-11-30T14:20:51.807Z,8.63
2022-11-30T14:23:22.210Z,5.03
2022-11-30T14:25:51.078Z,6.30
2022-11-30T14:28:19.702Z,9.07
2022-11-30T14:30:47.766Z,7.03
2022-11-30T14:33:19.849Z,6.50
2022-11-30T14:35:51.545Z,7.83
2022-11-30T14:38:24.356Z,5.93
2022-11-30T14:40:52.611Z,4.87
2022-11-30T14:43:20.698Z,7.67
2022-11-30T14:46:03.042Z,4.20
2022-11-30T14:48:33.845Z,9.47
2022-11-30T14:51:04.003Z,5.77
2022-11-30T14:53:36.226Z,6.67
2022-11-30T14:56:08.276Z,8.23
2022-11-30T14:58:39.056Z,8.07
2022-11-30T15:01:14.893Z,5.13
2022-11-30T15:03:42.840Z,6.57
2022-11-30T15:06:17.047Z,6.23
2022-11-30T15:08:47.843Z,7.87
2022-11-30T15:11:16.404Z,7.70
2022-11-30T15:13:45.900Z,4.00
2022-11-30T15:16:19.078Z,6.37
2022-11-30T15:18:47.136Z,5.20
2022-11-30T15:21:18.031Z,7.27
2022-11-30T15:23:50.845Z,6.73
2022-11-30T15:26:21.255Z,5.80
2022-11-30T15:28:55.522Z,5.20
2022-11-30T15:31:23.926Z,7.33
2022-11-30T15:33:51.930Z,8.03
2022-11-30T15:36:32.841Z,3.60
2022-11-30T15:39:02.099Z,7.00
2022-11-30T15:41:30.026Z,5.13
2022-11-30T15:43:58.225Z,10.00
2022-11-30T15:46:30.908Z,5.63
2022-11-30T15:49:14.076Z,9.60
2022-11-30T15:51:44.374Z,7.87
2022-11-30T15:54:12.360Z,4.77
2022-11-30T15:56:40.294Z,5.07
2022-11-30T15:59:08.971Z,6.03
2022-11-30T16:02:02.152Z,4.27
2022-11-30T16:04:30.512Z,3.77
2022-11-30T16:07:00.392Z,4.97
2022-11-30T16:09:32.522Z,5.87
2022-11-30T16:12:01.558Z,5.20
2022-11-30T16:14:29.595Z,6.13
2022-11-30T16:16:57.634Z,5.53
2022-11-30T16:19:25.733Z,4.93
2022-11-30T16:21:53.735Z,6.70
2022-11-30T16:24:24.545Z,5.00
2022-11-30T16:26:52.618Z,9.60
2022-11-30T16:29:20.790Z,6.07
2022-11-30T16:31:49.297Z,7.07
2022-11-30T16:34:17.371Z,5.93
2022-11-30T16:36:45.334Z,3.83
2022-11-30T16:39:13.434Z,9.27
2022-11-30T16:41:43.592Z,5.13
2022-11-30T16:44:13.618Z,5.10
2022-11-30T16:46:41.566Z,6.33
2022-11-30T16:49:09.569Z,7.67
2022-11-30T16:51:37.597Z,19.03
2022-11-30T16:54:05.699Z,6.10
2022-11-30T16:56:33.784Z,7.17
2022-11-30T16:59:03.210Z,9.23
2022-11-30T17:01:35.868Z,5.47
2022-11-30T17:04:06.381Z,6.53
2022-11-30T17:06:34.312Z,7.50
2022-11-30T17:09:02.368Z,9.40
2022-11-30T17:11:31.133Z,9.30
2022-11-30T17:13:59.142Z,6.00
2022-11-30T17:16:28.625Z,4.83
2022-11-30T17:18:56.637Z,4.70
2022-11-30T17:21:27.511Z,8.67
2022-11-30T17:23:55.494Z,6.30
2022-11-30T17:26:23.458Z,8.80
2022-11-30T17:28:51.396Z,6.90
2022-11-30T17:31:19.615Z,6.80
2022-11-30T17:33:48.983Z,6.10
2022-11-30T17:36:17.282Z,8.00
2022-11-30T17:38:45.406Z,8.70
2022-11-30T17:41:18.835Z,6.80
2022-11-30T17:43:47.786Z,4.67
2022-11-30T17:46:17.227Z,6.07
2022-11-30T17:48:45.297Z,4.73
2022-11-30T17:51:14.763Z,5.80
2022-11-30T17:53:44.364Z,5.87
2022-11-30T17:56:13.955Z,6.43
2022-11-30T17:58:44.091Z,6.20
2022-11-30T18:01:16.755Z,7.27
2022-11-30T18:03:44.953Z,6.83
2022-11-30T18:06:14.324Z,6.43
2022-11-30T18:08:42.334Z,11.23
2022-11-30T18:11:11.545Z,5.30
2022-11-30T18:13:39.508Z,6.67
2022-11-30T18:16:09.144Z,6.27
2022-11-30T18:18:37.109Z,7.13
2022-11-30T18:21:06.177Z,4.20
2022-11-30T18:23:35.853Z,7.90
2022-11-30T18:26:03.993Z,8.80
2022-11-30T18:28:31.946Z,6.33
2022-11-30T18:30:59.969Z,5.93
2022-11-30T18:33:27.972Z,7.73
2022-11-30T18:35:58.562Z,6.00
2022-11-30T18:38:26.533Z,7.50
2022-11-30T18:40:55.929Z,4.27
2022-11-30T18:43:23.939Z,5.70
2022-11-30T18:45:52.024Z,5.23
2022-11-30T18:48:19.995Z,4.67
2022-11-30T18:50:47.987Z,8.17
2022-11-30T18:53:18.340Z,7.17
2022-11-30T18:55:46.648Z,6.00
2022-11-30T18:58:16.002Z,6.17
2022-11-30T19:00:44.120Z,5.67
2022-11-30T19:03:12.078Z,6.93
2022-11-30T19:05:40.985Z,6.50
2022-11-30T19:08:11.263Z,4.93
2022-11-30T19:10:39.810Z,8.20
2022-11-30T19:13:07.978Z,10.70
2022-11-30T19:15:39.939Z,12.73
2022-11-30T19:18:08.662Z,8.60
2022-11-30T19:20:39.377Z,5.43
2022-11-30T19:23:07.318Z,9.37
2022-11-30T19:25:35.326Z,5.37
2022-11-30T19:28:03.389Z,5.97
2022-11-30T19:30:31.455Z,8.93
2022-11-30T19:33:00.843Z,5.97
2022-11-30T19:35:28.917Z,9.73
2022-11-30T19:37:56.954Z,5.67
2022-11-30T19:40:24.984Z,8.80
2022-11-30T19:42:52.987Z,4.57
2022-11-30T19:45:20.937Z,13.23
2022-11-30T19:47:48.938Z,8.23
2022-11-30T19:50:18.466Z,5.63
2022-11-30T19:52:46.403Z,5.60
2022-11-30T19:55:14.614Z,8.57
2022-11-30T19:57:42.583Z,8.57
2022-11-30T20:00:11.640Z,6.30
2022-11-30T20:02:39.621Z,8.60
2022-11-30T20:05:07.943Z,6.27
2022-11-30T20:07:37.692Z,6.73
2022-11-30T20:10:06.351Z,9.97
2022-11-30T20:12:34.274Z,12.03
2022-11-30T20:15:02.278Z,10.00
2022-11-30T20:17:30.268Z,7.60
2022-11-30T20:19:58.291Z,6.10
2022-11-30T20:22:26.325Z,10.13
2022-11-30T20:24:56.412Z,7.67
2022-11-30T20:27:25.128Z,8.10
2022-11-30T20:29:53.322Z,8.37
2022-11-30T20:32:21.293Z,12.57
2022-11-30T20:34:49.546Z,7.20
2022-11-30T20:37:18.128Z,5.47
2022-11-30T20:39:46.501Z,8.00
2022-11-30T20:42:15.963Z,7.50
2022-11-30T20:44:43.949Z,4.87
2022-11-30T20:47:12.457Z,8.40
2022-11-30T20:49:40.371Z,7.40
2022-11-30T20:52:08.375Z,7.33
2022-11-30T20:54:36.366Z,8.10
2022-11-30T20:57:04.559Z,7.63
2022-11-30T20:59:34.637Z,6.20
2022-11-30T21:02:02.611Z,7.70
2022-11-30T21:04:30.619Z,6.73
2022-11-30T21:06:58.587Z,7.00
2022-11-30T21:09:26.533Z,10.93
2022-11-30T21:11:54.521Z,8.03
2022-11-30T21:14:22.590Z,6.57
2022-11-30T21:16:52.019Z,7.20
2022-11-30T21:19:20.126Z,8.43
2022-11-30T21:21:48.106Z,8.27
2022-11-30T21:24:16.100Z,7.40
2022-11-30T21:26:44.143Z,8.20
2022-11-30T21:29:12.866Z,4.60
2022-11-30T21:31:40.890Z,5.17
2022-11-30T21:34:10.291Z,8.10
2022-11-30T21:36:38.205Z,5.23
2022-11-30T21:39:07.534Z,7.77
2022-11-30T21:41:35.588Z,5.27
2022-11-30T21:44:03.675Z,4.30
2022-11-30T21:46:31.905Z,8.10
2022-11-30T21:48:59.918Z,8.23
2022-11-30T21:51:30.174Z,5.23
2022-11-30T21:53:59.398Z,8.97
2022-11-30T21:56:28.715Z,4.97
2022-11-30T21:58:56.767Z,9.43
2022-11-30T22:01:26.596Z,4.33
2022-11-30T22:03:56.027Z,9.13
2022-11-30T22:06:24.544Z,7.53
2022-11-30T22:08:53.920Z,6.57
2022-11-30T22:11:22.866Z,9.00
2022-11-30T22:13:51.087Z,5.33
2022-11-30T22:16:19.222Z,7.50
2022-11-30T22:18:47.318Z,4.13
2022-11-30T22:21:15.921Z,9.30
2022-11-30T22:23:45.009Z,6.20
2022-11-30T22:26:15.145Z,6.07
2022-11-30T22:28:43.838Z,7.90
2022-11-30T22:31:12.587Z,6.00
2022-11-30T22:33:41.090Z,5.30
2022-11-30T22:36:09.704Z,6.27
2022-11-30T22:38:37.681Z,5.23
2022-11-30T22:41:06.717Z,4.43
2022-11-30T22:43:36.065Z,5.23
2022-11-30T22:46:05.912Z,4.80
2022-11-30T22:48:34.228Z,4.83
2022-11-30T22:51:06.249Z,4.90
2022-11-30T22:53:35.064Z,4.80
2022-11-30T22:56:04.161Z,5.67
2022-11-30T22:58:32.251Z,4.60
2022-11-30T23:01:08.354Z,6.07
2022-11-30T23:03:36.370Z,6.07
2022-11-30T23:06:04.774Z,6.40
2022-11-30T23:08:32.991Z,3.53
2022-11-30T23:11:01.194Z,7.20
2022-11-30T23:13:29.240Z,5.50
2022-11-30T23:15:59.795Z,5.53
2022-11-30T23:18:29.451Z,4.63
2022-11-30T23:20:57.545Z,4.37
2022-11-30T23:23:25.555Z,5.13
2022-11-30T23:25:53.497Z,12.40
2022-11-30T23:28:21.556Z,8.40
2022-11-30T23:30:49.608Z,5.60
2022-11-30T23:33:17.529Z,5.07
2022-11-30T23:35:46.847Z,6.87
2022-11-30T23:38:14.834Z,4.37
2022-11-30T23:40:42.808Z,5.90
2022-11-30T23:43:10.746Z,5.93
2022-11-30T23:45:38.652Z,9.83
2022-11-30T23:48:07.141Z,4.70
2022-11-30T23:50:35.060Z,6.07
2022-11-30T23:53:04.390Z,11.90
2022-11-30T23:55:32.385Z,6.63
2022-11-30T23:58:00.340Z,7.67
